createdAt,value
2022-09-07T00:01:07.347Z,201.90
2022-09-07T00:03:34.706Z,200.88
2022-09-07T00:06:07.224Z,202.60
2022-09-07T00:08:33.884Z,198.18
2022-09-07T00:11:03.981Z,194.15
2022-09-07T00:13:34.087Z,196.00
2022-09-07T00:16:10.069Z,194.82
2022-09-07T00:18:37.115Z,197.23
2022-09-07T00:21:06.544Z,197.40
2022-09-07T00:23:34.759Z,197.25
2022-09-07T00:26:02.717Z,193.25
2022-09-07T00:28:29.926Z,197.90
2022-09-07T00:30:56.900Z,197.23
2022-09-07T00:33:23.745Z,197.07
2022-09-07T00:35:50.575Z,207.70
2022-09-07T00:38:17.340Z,202.63
2022-09-07T00:40:44.104Z,206.00
2022-09-07T00:43:17.479Z,195.52
2022-09-07T00:45:44.117Z,203.02
2022-09-07T00:48:17.131Z,198.52
2022-09-07T00:51:06.413Z,202.50
2022-09-07T00:53:43.236Z,194.70
2022-09-07T00:56:11.256Z,196.68
2022-09-07T00:58:42.176Z,196.32
2022-09-07T01:01:10.184Z,195.02
2022-09-07T01:03:42.190Z,202.35
2022-09-07T01:06:17.062Z,194.18
2022-09-07T01:08:45.092Z,194.05
2022-09-07T01:11:12.599Z,192.40
2022-09-07T01:13:42.967Z,202.40
2022-09-07T01:16:32.913Z,200.85
2022-09-07T01:19:27.023Z,197.13
2022-09-07T01:22:22.935Z,193.13
2022-09-07T01:25:07.768Z,192.37
2022-09-07T01:27:49.744Z,193.43
2022-09-07T01:30:19.493Z,188.48
2022-09-07T01:33:07.506Z,191.50
2022-09-07T01:35:41.493Z,200.65
2022-09-07T01:38:47.620Z,195.50
2022-09-07T01:41:26.644Z,192.68
2022-09-07T01:44:16.144Z,189.05
2022-09-07T01:47:07.301Z,193.52
2022-09-07T01:49:42.610Z,193.00
2022-09-07T01:52:19.801Z,190.52
2022-09-07T01:54:52.862Z,188.95
2022-09-07T01:57:27.152Z,188.32
2022-09-07T02:00:03.041Z,193.15
2022-09-07T02:02:52.929Z,194.48
2022-09-07T02:05:39.383Z,187.10
2022-09-07T02:08:15.943Z,194.07
2022-09-07T02:10:49.051Z,189.55
2022-09-07T02:13:26.746Z,192.27
2022-09-07T02:15:59.924Z,179.65
2022-09-07T02:18:37.372Z,191.43
2022-09-07T02:21:08.045Z,180.82
2022-09-07T02:24:03.695Z,175.73
2022-09-07T02:26:30.760Z,189.43
2022-09-07T02:28:57.881Z,194.52
2022-09-07T02:31:24.711Z,181.70
2022-09-07T02:33:52.052Z,183.93
2022-09-07T02:36:22.457Z,196.73
2022-09-07T02:38:49.287Z,178.25
2022-09-07T02:41:37.353Z,188.85
2022-09-07T02:44:12.089Z,190.65
2022-09-07T02:47:15.652Z,188.10
2022-09-07T02:50:04.474Z,189.07
2022-09-07T02:52:48.644Z,190.88
2022-09-07T02:55:27.358Z,184.93
2022-09-07T02:58:01.748Z,180.18
2022-09-07T03:00:32.011Z,193.88
2022-09-07T03:03:24.484Z,186.90
2022-09-07T03:05:59.082Z,188.65
2022-09-07T03:08:34.670Z,191.98
2022-09-07T03:11:01.696Z,184.75
2022-09-07T03:13:29.681Z,188.63
2022-09-07T03:15:57.301Z,185.82
2022-09-07T03:18:25.623Z,187.15
2022-09-07T03:20:52.785Z,186.82
2022-09-07T03:23:19.625Z,184.00
2022-09-07T03:25:47.728Z,191.82
2022-09-07T03:28:14.501Z,182.50
2022-09-07T03:30:47.444Z,177.02
2022-09-07T03:33:16.019Z,182.35
2022-09-07T03:35:47.090Z,180.68
2022-09-07T03:38:13.789Z,192.68
2022-09-07T03:40:40.752Z,182.23
2022-09-07T03:43:07.585Z,193.00
2022-09-07T03:45:34.303Z,186.55
2022-09-07T03:48:00.982Z,188.07
2022-09-07T03:50:29.227Z,193.65
2022-09-07T03:52:56.066Z,188.00
2022-09-07T03:55:22.775Z,193.85
2022-09-07T03:57:49.412Z,190.88
2022-09-07T04:00:16.748Z,184.20
2022-09-07T04:02:43.469Z,178.73
2022-09-07T04:05:10.200Z,185.98
2022-09-07T04:07:36.845Z,179.35
2022-09-07T04:10:04.208Z,182.13
2022-09-07T04:12:30.884Z,187.70
2022-09-07T04:14:57.635Z,181.07
2022-09-07T04:17:24.458Z,179.18
2022-09-07T04:19:51.096Z,184.02
2022-09-07T04:22:17.715Z,182.05
2022-09-07T04:24:44.413Z,184.35
2022-09-07T04:27:11.068Z,176.27
2022-09-07T04:29:37.806Z,177.65
2022-09-07T04:32:04.525Z,187.80
2022-09-07T04:34:31.183Z,175.00
2022-09-07T04:36:57.888Z,177.25
2022-09-07T04:39:24.611Z,171.45
2022-09-07T04:41:51.272Z,181.70
2022-09-07T04:44:17.947Z,179.50
2022-09-07T04:46:44.736Z,184.55
2022-09-07T04:49:12.003Z,186.90
2022-09-07T04:51:40.015Z,182.68
2022-09-07T04:54:07.381Z,177.23
2022-09-07T04:56:34.331Z,178.50
2022-09-07T04:59:02.448Z,181.68
2022-09-07T05:01:29.665Z,190.90
2022-09-07T05:03:59.139Z,183.45
2022-09-07T05:06:25.965Z,177.43
2022-09-07T05:08:54.153Z,175.50
2022-09-07T05:11:28.382Z,176.32
2022-09-07T05:14:00.829Z,177.45
2022-09-07T05:16:28.543Z,173.60
2022-09-07T05:19:01.227Z,176.35
2022-09-07T05:21:30.797Z,182.85
2022-09-07T05:23:59.765Z,175.40
2022-09-07T05:26:29.029Z,174.60
2022-09-07T05:31:42.555Z,183.43
2022-09-07T05:36:56.784Z,185.25
2022-09-07T05:39:23.641Z,179.13
2022-09-07T05:41:50.297Z,178.90
2022-09-07T05:47:03.773Z,178.93
2022-09-07T05:49:31.038Z,179.60
2022-09-07T05:51:57.745Z,181.48
2022-09-07T05:54:24.464Z,182.23
2022-09-07T05:56:51.200Z,181.35
2022-09-07T05:59:17.924Z,181.93
2022-09-07T06:01:44.617Z,177.68
2022-09-07T06:04:11.408Z,181.90
2022-09-07T06:06:40.868Z,188.23
2022-09-07T06:09:08.170Z,182.05
2022-09-07T06:11:36.540Z,180.05
2022-09-07T06:14:03.234Z,185.45
2022-09-07T06:16:33.309Z,190.25
2022-09-07T06:18:59.982Z,185.63
2022-09-07T06:21:26.868Z,180.63
2022-09-07T06:23:54.514Z,179.93
2022-09-07T06:26:21.160Z,182.70
2022-09-07T06:28:50.386Z,183.75
2022-09-07T06:31:20.778Z,179.57
2022-09-07T06:33:48.836Z,190.75
2022-09-07T06:36:17.763Z,184.75
2022-09-07T06:38:44.968Z,181.35
2022-09-07T06:44:07.418Z,191.05
2022-09-07T06:49:21.190Z,184.75
2022-09-07T06:51:47.961Z,188.20
2022-09-07T06:57:08.583Z,181.23
2022-09-07T06:59:35.769Z,179.60
2022-09-07T07:02:02.547Z,180.30
2022-09-07T07:04:29.228Z,182.55
2022-09-07T07:06:56.028Z,189.75
2022-09-07T07:09:22.696Z,186.32
2022-09-07T07:11:49.357Z,192.18
2022-09-07T07:14:17.052Z,190.07
2022-09-07T07:16:44.169Z,180.75
2022-09-07T07:19:10.901Z,183.60
2022-09-07T07:21:55.312Z,178.40
2022-09-07T07:24:24.322Z,181.05
2022-09-07T07:26:51.035Z,179.90
2022-09-07T07:29:18.886Z,180.07
2022-09-07T07:31:47.197Z,174.63
2022-09-07T07:34:14.732Z,177.85
2022-09-07T07:36:41.455Z,180.25
2022-09-07T07:41:58.674Z,192.65
2022-09-07T07:44:28.475Z,190.95
2022-09-07T07:46:55.163Z,197.98
2022-09-07T07:49:22.094Z,192.65
2022-09-07T07:54:38.394Z,202.75
2022-09-07T07:57:06.848Z,202.35
2022-09-07T07:59:34.484Z,204.60
2022-09-07T08:02:04.784Z,211.60
2022-09-07T08:04:33.592Z,210.38
2022-09-07T08:07:01.431Z,202.15
2022-09-07T08:09:30.257Z,199.93
2022-09-07T08:11:56.890Z,200.07
2022-09-07T08:14:23.539Z,203.18
2022-09-07T08:16:50.161Z,199.60
2022-09-07T08:19:16.892Z,195.07
2022-09-07T08:21:43.535Z,191.95
2022-09-07T08:24:10.397Z,191.50
2022-09-07T08:26:37.066Z,198.27
2022-09-07T08:29:03.704Z,206.00
2022-09-07T08:31:30.417Z,192.35
2022-09-07T08:33:57.044Z,192.30
2022-09-07T08:36:23.657Z,188.02
2022-09-07T08:38:50.222Z,190.35
2022-09-07T08:42:01.506Z,187.48
2022-09-07T08:44:45.595Z,194.75
2022-09-07T08:47:32.105Z,191.50
2022-09-07T08:50:07.070Z,192.70
2022-09-07T08:52:48.350Z,189.60
2022-09-07T08:55:19.013Z,188.73
2022-09-07T08:57:54.105Z,184.15
2022-09-07T09:00:22.536Z,184.88
2022-09-07T09:06:07.549Z,183.43
2022-09-07T09:08:55.382Z,190.02
2022-09-07T09:11:56.344Z,188.50
2022-09-07T09:14:34.637Z,181.10
2022-09-07T09:17:10.682Z,188.90
2022-09-07T09:19:58.896Z,192.48
2022-09-07T09:22:28.420Z,188.70
2022-09-07T09:25:18.648Z,187.85
2022-09-07T09:27:45.602Z,184.27
2022-09-07T09:30:15.441Z,189.48
2022-09-07T09:32:44.556Z,186.88
2022-09-07T09:35:32.674Z,195.80
2022-09-07T09:37:59.487Z,192.52
2022-09-07T09:40:30.427Z,199.15
2022-09-07T09:43:01.849Z,193.95
2022-09-07T09:46:12.129Z,196.10
2022-09-07T09:48:22.879Z,191.77
2022-09-07T09:54:08.709Z,182.95
2022-09-07T09:56:46.135Z,185.65
2022-09-07T10:05:27.755Z,183.07
2022-09-07T10:07:54.764Z,176.25
2022-09-07T10:10:21.674Z,178.80
2022-09-07T10:12:55.984Z,171.13
2022-09-07T10:15:40.592Z,175.50
2022-09-07T10:18:18.780Z,183.05
2022-09-07T10:20:45.577Z,177.18
2022-09-07T10:23:25.783Z,174.45
2022-09-07T10:25:52.450Z,172.05
2022-09-07T10:28:22.855Z,174.10
2022-09-07T10:31:08.973Z,176.82
2022-09-07T10:36:58.351Z,182.30
2022-09-07T10:40:11.234Z,178.30
2022-09-07T10:43:20.699Z,174.85
2022-09-07T10:45:52.027Z,174.80
2022-09-07T10:48:24.687Z,176.18
2022-09-07T10:50:56.878Z,178.70
2022-09-07T10:53:43.402Z,169.57
2022-09-07T10:56:24.333Z,174.48
2022-09-07T11:00:07.450Z,172.75
2022-09-07T11:02:43.214Z,174.50
2022-09-07T11:05:32.685Z,171.10
2022-09-07T11:08:27.187Z,179.93
2022-09-07T11:11:05.965Z,174.25
2022-09-07T11:13:50.220Z,170.13
2022-09-07T11:19:41.482Z,179.65
2022-09-07T11:22:33.291Z,173.75
2022-09-07T11:27:59.374Z,174.73
2022-09-07T11:30:41.397Z,169.07
2022-09-07T11:33:20.738Z,170.65
2022-09-07T11:36:19.971Z,173.88
2022-09-07T11:38:57.447Z,172.80
2022-09-07T11:41:36.803Z,175.10
2022-09-07T11:44:23.866Z,176.35
2022-09-07T11:47:03.197Z,173.45
2022-09-07T11:49:30.848Z,173.05
2022-09-07T11:52:09.616Z,172.48
2022-09-07T11:54:43.218Z,170.05
2022-09-07T11:57:15.936Z,174.95
2022-09-07T12:00:01.741Z,169.75
2022-09-07T12:03:08.903Z,171.75
2022-09-07T12:05:56.866Z,175.70
2022-09-07T12:08:47.762Z,170.25
2022-09-07T12:11:36.262Z,173.95
2022-09-07T12:14:11.858Z,174.40
2022-09-07T12:16:57.592Z,175.80
2022-09-07T12:19:25.995Z,176.80
2022-09-07T12:21:52.544Z,179.35
2022-09-07T12:24:39.391Z,172.55
2022-09-07T12:27:11.599Z,174.18
2022-09-07T12:29:45.195Z,179.23
2022-09-07T12:34:59.558Z,174.77
2022-09-07T12:37:40.673Z,176.95
2022-09-07T12:40:29.288Z,172.18
2022-09-07T12:43:14.205Z,171.45
2022-09-07T12:45:40.821Z,175.77
2022-09-07T12:48:16.437Z,172.23
2022-09-07T12:50:52.048Z,175.50
2022-09-07T12:53:24.649Z,177.25
2022-09-07T12:56:19.006Z,173.75
2022-09-07T12:59:19.600Z,175.60
2022-09-07T13:01:59.214Z,179.10
2022-09-07T13:04:35.767Z,182.93
2022-09-07T13:07:40.180Z,181.70
2022-09-07T13:10:25.481Z,183.30
2022-09-07T13:12:53.287Z,184.40
2022-09-07T13:16:03.899Z,184.55
2022-09-07T13:18:30.566Z,180.48
2022-09-07T13:21:09.385Z,185.23
2022-09-07T13:23:37.914Z,183.25
2022-09-07T13:26:08.695Z,178.90
2022-09-07T13:29:07.778Z,183.15
2022-09-07T13:31:53.304Z,194.55
2022-09-07T13:34:32.276Z,187.07
2022-09-07T13:37:03.574Z,192.40
2022-09-07T13:39:38.809Z,191.77
2022-09-07T13:42:06.565Z,192.50
2022-09-07T13:44:34.450Z,187.32
2022-09-07T13:47:07.101Z,186.93
2022-09-07T13:49:46.011Z,188.15
2022-09-07T13:52:36.115Z,181.80
2022-09-07T13:55:26.181Z,189.40
2022-09-07T13:59:00.818Z,188.35
2022-09-07T14:01:29.183Z,184.23
2022-09-07T14:04:06.629Z,185.23
2022-09-07T14:06:38.253Z,189.55
2022-09-07T14:09:14.707Z,188.55
2022-09-07T14:11:50.239Z,184.65
2022-09-07T14:14:23.293Z,187.60
2022-09-07T14:16:53.172Z,183.88
2022-09-07T14:19:24.083Z,182.63
2022-09-07T14:22:14.847Z,184.48
2022-09-07T14:24:50.820Z,180.85
2022-09-07T14:27:21.956Z,182.35
2022-09-07T14:29:49.422Z,179.63
2022-09-07T14:32:23.715Z,184.20
2022-09-07T14:34:51.536Z,178.35
2022-09-07T14:37:21.133Z,187.43
2022-09-07T14:39:49.612Z,178.20
2022-09-07T14:42:24.226Z,180.75
2022-09-07T14:45:11.383Z,180.88
2022-09-07T14:47:40.732Z,176.65
2022-09-07T14:50:20.457Z,182.55
2022-09-07T14:55:45.585Z,184.07
2022-09-07T14:58:15.252Z,178.10
2022-09-07T15:00:45.718Z,183.05
2022-09-07T15:03:32.224Z,182.02
2022-09-07T15:06:01.457Z,182.23
2022-09-07T15:08:48.957Z,183.60
2022-09-07T15:11:36.432Z,188.20
2022-09-07T15:14:12.413Z,182.43
2022-09-07T15:16:42.881Z,178.45
2022-09-07T15:19:15.706Z,188.88
2022-09-07T15:21:43.737Z,180.75
2022-09-07T15:24:11.728Z,183.98
2022-09-07T15:27:05.213Z,181.48
2022-09-07T15:29:32.827Z,179.88
2022-09-07T15:32:05.034Z,180.63
2022-09-07T15:34:35.372Z,178.50
2022-09-07T15:38:01.235Z,179.23
2022-09-07T15:39:55.444Z,186.10
2022-09-07T15:45:09.374Z,187.85
2022-09-07T15:47:47.467Z,185.77
2022-09-07T15:50:18.249Z,179.10
2022-09-07T15:52:52.481Z,180.55
2022-09-07T15:55:19.136Z,181.77
2022-09-07T15:57:52.777Z,182.60
2022-09-07T16:00:23.971Z,186.05
2022-09-07T16:03:07.862Z,186.23
2022-09-07T16:05:35.471Z,184.35
2022-09-07T16:10:55.904Z,182.23
2022-09-07T16:13:31.482Z,190.40
2022-09-07T16:15:59.885Z,178.95
2022-09-07T16:18:31.379Z,188.48
2022-09-07T16:21:06.780Z,185.68
2022-09-07T16:23:33.715Z,182.82
2022-09-07T16:26:02.121Z,186.32
2022-09-07T16:28:29.255Z,183.85
2022-09-07T16:30:56.432Z,195.00
2022-09-07T16:33:29.132Z,187.60
2022-09-07T16:35:59.736Z,190.77
2022-09-07T16:41:20.818Z,190.23
2022-09-07T16:43:47.586Z,186.65
2022-09-07T16:46:16.742Z,198.38
2022-09-07T16:48:44.141Z,189.20
2022-09-07T16:51:16.453Z,192.15
2022-09-07T16:53:43.293Z,189.30
2022-09-07T16:56:12.679Z,196.68
2022-09-07T16:58:41.946Z,195.82
2022-09-07T17:01:11.519Z,189.45
2022-09-07T17:03:39.347Z,189.05
2022-09-07T17:06:08.533Z,182.55
2022-09-07T17:08:36.870Z,185.13
2022-09-07T17:11:08.922Z,194.13
2022-09-07T17:13:37.861Z,194.07
2022-09-07T17:16:10.060Z,189.43
2022-09-07T17:21:24.827Z,196.32
2022-09-07T17:23:55.593Z,189.63
2022-09-07T17:26:26.648Z,191.82
2022-09-07T17:28:56.557Z,192.15
2022-09-07T17:34:16.004Z,191.05
2022-09-07T17:36:42.868Z,194.13
2022-09-07T17:39:18.925Z,200.70
2022-09-07T17:41:48.239Z,192.27
2022-09-07T17:44:15.856Z,197.55
2022-09-07T17:46:42.641Z,192.73
2022-09-07T17:49:16.489Z,196.65
2022-09-07T17:51:44.268Z,199.05
2022-09-07T17:54:15.997Z,205.73
2022-09-07T17:56:44.085Z,197.57
2022-09-07T18:01:58.527Z,205.07
2022-09-07T18:04:25.753Z,197.50
2022-09-07T18:06:54.133Z,205.82
2022-09-07T18:09:21.839Z,202.43
2022-09-07T18:11:49.910Z,200.48
2022-09-07T18:14:17.863Z,194.00
2022-09-07T18:16:46.003Z,192.25
2022-09-07T18:19:13.692Z,202.73
2022-09-07T18:21:42.695Z,199.02
2022-09-07T18:24:20.635Z,195.65
2022-09-07T18:26:51.530Z,199.98
2022-09-07T18:29:36.843Z,202.73
2022-09-07T18:32:08.673Z,197.07
2022-09-07T18:34:36.834Z,195.10
2022-09-07T18:37:03.608Z,205.43
2022-09-07T18:39:30.528Z,203.43
2022-09-07T18:41:57.220Z,201.68
2022-09-07T18:47:21.703Z,199.02
2022-09-07T18:49:51.331Z,191.65
2022-09-07T18:55:07.256Z,199.70
2022-09-07T18:57:34.278Z,199.57
2022-09-07T19:00:01.159Z,205.40
2022-09-07T19:02:27.948Z,197.88
2022-09-07T19:07:41.300Z,197.30
2022-09-07T19:10:08.350Z,197.93
2022-09-07T19:12:35.028Z,206.85
2022-09-07T19:15:01.644Z,197.10
2022-09-07T19:17:28.346Z,203.13
2022-09-07T19:19:55.088Z,203.77
2022-09-07T19:22:21.763Z,198.07
2022-09-07T19:24:48.625Z,191.82
2022-09-07T19:27:15.916Z,194.68
2022-09-07T19:29:42.613Z,193.52
2022-09-07T19:32:11.771Z,202.25
2022-09-07T19:34:43.751Z,198.13
2022-09-07T19:37:12.242Z,201.98
2022-09-07T19:39:39.694Z,199.55
2022-09-07T19:42:06.657Z,200.73
2022-09-07T19:44:33.707Z,206.00
2022-09-07T19:47:00.986Z,204.20
2022-09-07T19:49:28.645Z,197.98
2022-09-07T19:51:55.532Z,196.63
2022-09-07T19:54:22.586Z,194.65
2022-09-07T19:56:49.417Z,193.45
2022-09-07T19:59:18.851Z,195.82
2022-09-07T20:01:47.306Z,197.15
2022-09-07T20:04:20.332Z,193.80
2022-09-07T20:06:50.062Z,193.15
2022-09-07T20:09:20.654Z,198.85
2022-09-07T20:11:48.294Z,190.45
2022-09-07T20:14:16.373Z,191.20
2022-09-07T20:16:43.435Z,193.23
2022-09-07T20:19:12.088Z,202.93
2022-09-07T20:21:38.738Z,196.95
2022-09-07T20:24:05.811Z,191.07
2022-09-07T20:26:32.864Z,194.98
2022-09-07T20:29:16.813Z,198.68
2022-09-07T20:31:47.173Z,199.18
2022-09-07T20:34:14.151Z,195.15
2022-09-07T20:36:40.818Z,192.35
2022-09-07T20:39:08.340Z,195.85
2022-09-07T20:41:35.456Z,200.85
2022-09-07T20:44:03.903Z,197.07
2022-09-07T20:46:31.109Z,196.95
2022-09-07T20:48:58.287Z,196.68
2022-09-07T20:51:25.322Z,191.23
2022-09-07T20:53:51.978Z,202.23
2022-09-07T20:56:21.555Z,203.77
2022-09-07T20:58:53.192Z,194.63
2022-09-07T21:01:21.313Z,200.75
2022-09-07T21:03:54.212Z,194.13
2022-09-07T21:06:22.416Z,197.27
2022-09-07T21:08:49.651Z,195.60
2022-09-07T21:11:18.993Z,202.77
2022-09-07T21:13:46.766Z,193.18
2022-09-07T21:16:16.402Z,206.57
2022-09-07T21:18:44.520Z,197.40
2022-09-07T21:21:20.374Z,196.80
2022-09-07T21:23:48.030Z,195.27
2022-09-07T21:26:15.110Z,192.13
2022-09-07T21:28:41.733Z,194.32
2022-09-07T21:31:09.332Z,189.45
2022-09-07T21:33:37.641Z,202.55
2022-09-07T21:36:10.469Z,189.10
2022-09-07T21:38:38.869Z,196.00
2022-09-07T21:41:09.826Z,195.85
2022-09-07T21:43:37.153Z,195.75
2022-09-07T21:46:11.728Z,195.65
2022-09-07T21:48:38.876Z,199.85
2022-09-07T21:51:05.825Z,192.10
2022-09-07T21:53:33.181Z,196.65
2022-09-07T21:56:02.506Z,191.77
2022-09-07T21:58:29.975Z,192.85
2022-09-07T22:00:57.587Z,196.18
2022-09-07T22:03:25.714Z,184.23
2022-09-07T22:05:52.919Z,202.48
2022-09-07T22:08:19.739Z,193.82
2022-09-07T22:10:46.641Z,191.73
2022-09-07T22:13:13.450Z,187.10
2022-09-07T22:15:41.502Z,201.82
2022-09-07T22:18:12.458Z,185.38
2022-09-07T22:20:39.724Z,196.40
2022-09-07T22:23:06.477Z,189.98
2022-09-07T22:25:33.740Z,195.10
2022-09-07T22:28:00.389Z,187.02
2022-09-07T22:30:27.271Z,189.90
2022-09-07T22:32:53.933Z,191.95
2022-09-07T22:35:21.483Z,189.20
2022-09-07T22:37:48.157Z,184.25
2022-09-07T22:40:15.062Z,183.13
2022-09-07T22:42:42.047Z,186.23
2022-09-07T22:45:09.234Z,198.27
2022-09-07T22:47:36.217Z,196.15
2022-09-07T22:50:03.068Z,187.75
2022-09-07T22:52:29.730Z,189.27
2022-09-07T22:54:56.348Z,179.75
2022-09-07T22:57:23.481Z,188.02
2022-09-07T22:59:51.441Z,190.07
2022-09-07T23:02:18.076Z,191.27
2022-09-07T23:04:44.850Z,189.50
2022-09-07T23:07:12.166Z,201.10
2022-09-07T23:09:38.872Z,200.88
2022-09-07T23:12:05.847Z,194.10
2022-09-07T23:14:32.687Z,188.10
2022-09-07T23:16:59.457Z,187.32
2022-09-07T23:19:26.152Z,194.88
2022-09-07T23:21:52.828Z,190.55
2022-09-07T23:24:19.665Z,187.65
2022-09-07T23:26:46.966Z,191.57
2022-09-07T23:29:15.237Z,187.18
2022-09-07T23:31:42.555Z,200.68
2022-09-07T23:34:09.510Z,183.20
2022-09-07T23:36:37.200Z,188.73
2022-09-07T23:39:04.021Z,188.77
2022-09-07T23:41:30.779Z,187.05
2022-09-07T23:43:57.753Z,196.77
2022-09-07T23:46:24.694Z,182.90
2022-09-07T23:48:51.541Z,188.45
2022-09-07T23:51:23.472Z,181.02
2022-09-07T23:53:51.939Z,187.73
2022-09-07T23:56:18.684Z,181.68
2022-09-07T23:58:45.342Z,190.80
